createdAt,value
2023-02-27T00:01:52.916Z,-2.70
2023-02-27T00:04:19.639Z,-2.60
2023-02-27T00:06:46.396Z,-2.60
2023-02-27T00:09:13.153Z,-2.70
2023-02-27T00:11:41.228Z,-2.70
2023-02-27T00:14:08.181Z,-2.80
2023-02-27T00:16:35.334Z,-2.80
2023-02-27T00:19:02.220Z,-2.80
2023-02-27T00:21:31.173Z,-2.90
2023-02-27T00:23:59.308Z,-2.80
2023-02-27T00:26:26.045Z,-2.80
2023-02-27T00:28:56.329Z,-2.70
2023-02-27T00:31:23.456Z,-2.90
2023-02-27T00:33:50.278Z,-3.00
2023-02-27T00:36:17.043Z,-3.10
2023-02-27T00:38:43.947Z,-3.00
2023-02-27T00:41:11.878Z,-2.90
2023-02-27T00:43:38.633Z,-2.90
2023-02-27T00:46:06.927Z,-2.70
2023-02-27T00:48:33.858Z,-2.80
2023-02-27T00:51:00.847Z,-2.80
2023-02-27T00:53:27.921Z,-2.90
2023-02-27T00:55:54.846Z,-2.80
2023-02-27T00:58:21.639Z,-2.80
2023-02-27T01:00:48.531Z,-2.70
2023-02-27T01:03:16.800Z,-2.70
2023-02-27T01:05:45.898Z,-2.70
2023-02-27T01:08:12.816Z,-2.70
2023-02-27T01:10:39.547Z,-2.70
2023-02-27T01:13:06.279Z,-2.50
2023-02-27T01:15:33.042Z,-2.60
2023-02-27T01:17:59.807Z,-2.60
2023-02-27T01:20:27.920Z,-2.70
2023-02-27T01:22:54.669Z,-2.70
2023-02-27T01:25:21.710Z,-2.70
2023-02-27T01:27:48.454Z,-2.70
2023-02-27T01:30:15.549Z,-2.60
2023-02-27T01:32:42.770Z,-2.60
2023-02-27T01:35:09.751Z,-2.50
2023-02-27T01:37:37.855Z,-2.50
2023-02-27T01:40:06.141Z,-2.80
2023-02-27T01:42:33.633Z,-2.80
2023-02-27T01:45:40.089Z,-2.70
2023-02-27T01:48:13.735Z,-2.80
2023-02-27T01:50:46.806Z,-3.00
2023-02-27T01:53:15.377Z,-3.10
2023-02-27T01:55:42.952Z,-3.10
2023-02-27T01:58:11.992Z,-3.20
2023-02-27T02:00:39.262Z,-3.10
2023-02-27T02:03:14.058Z,-3.30
2023-02-27T02:05:41.574Z,-3.30
2023-02-27T02:08:08.660Z,-3.40
2023-02-27T02:10:38.219Z,-3.40
2023-02-27T02:13:05.089Z,-3.40
2023-02-27T02:15:39.256Z,-3.40
2023-02-27T02:18:19.622Z,-3.30
2023-02-27T02:21:31.430Z,-3.40
2023-02-27T02:24:37.521Z,-3.40
2023-02-27T02:27:21.477Z,-3.40
2023-02-27T02:30:33.279Z,-3.40
2023-02-27T02:33:45.994Z,-3.40
2023-02-27T02:36:57.578Z,-3.50
2023-02-27T02:39:42.731Z,-3.50
2023-02-27T02:42:19.794Z,-3.60
2023-02-27T02:44:53.144Z,-3.70
2023-02-27T02:47:28.320Z,-3.80
2023-02-27T02:50:00.594Z,-3.60
2023-02-27T02:52:38.297Z,-3.70
2023-02-27T02:55:12.492Z,-3.80
2023-02-27T02:57:43.619Z,-3.80
2023-02-27T03:00:15.209Z,-3.80
2023-02-27T03:02:49.823Z,-3.90
2023-02-27T03:05:22.377Z,-3.90
2023-02-27T03:07:54.127Z,-3.90
2023-02-27T03:10:27.114Z,-3.90
2023-02-27T03:13:00.151Z,-3.90
2023-02-27T03:15:30.266Z,-3.90
2023-02-27T03:18:03.426Z,-3.90
2023-02-27T03:20:35.120Z,-3.90
2023-02-27T03:23:06.158Z,-4.00
2023-02-27T03:25:35.843Z,-4.00
2023-02-27T03:28:06.218Z,-4.00
2023-02-27T03:30:37.277Z,-4.10
2023-02-27T03:33:09.977Z,-4.20
2023-02-27T03:35:44.920Z,-4.10
2023-02-27T03:38:18.251Z,-4.10
2023-02-27T03:40:55.739Z,-4.10
2023-02-27T03:43:30.632Z,-4.20
2023-02-27T03:46:04.507Z,-4.10
2023-02-27T03:48:31.665Z,-4.00
2023-02-27T03:51:00.585Z,-4.10
2023-02-27T03:53:34.102Z,-4.10
2023-02-27T03:56:04.882Z,-4.10
2023-02-27T03:58:31.986Z,-4.20
2023-02-27T04:00:58.824Z,-4.10
2023-02-27T04:03:26.683Z,-4.10
2023-02-27T04:05:53.640Z,-4.10
2023-02-27T04:08:39.935Z,-4.20
2023-02-27T04:11:24.428Z,-4.20
2023-02-27T04:14:03.704Z,-4.10
2023-02-27T04:16:44.412Z,-4.20
2023-02-27T04:19:29.139Z,-4.20
2023-02-27T04:22:05.561Z,-4.30
2023-02-27T04:24:37.814Z,-4.40
2023-02-27T04:27:17.774Z,-4.40
2023-02-27T04:29:53.032Z,-4.40
2023-02-27T04:32:26.171Z,-4.40
2023-02-27T04:34:58.174Z,-4.30
2023-02-27T04:37:31.107Z,-4.30
2023-02-27T04:40:01.769Z,-4.20
2023-02-27T04:42:33.134Z,-4.30
2023-02-27T04:45:04.155Z,-4.20
2023-02-27T04:47:46.776Z,-4.30
2023-02-27T04:50:22.256Z,-4.30
2023-02-27T04:52:55.153Z,-4.30
2023-02-27T04:55:25.138Z,-4.30
2023-02-27T04:58:01.736Z,-4.20
2023-02-27T05:00:30.312Z,-4.40
2023-02-27T05:03:05.394Z,-4.40
2023-02-27T05:05:35.378Z,-4.30
2023-02-27T05:08:07.062Z,-4.10
2023-02-27T05:10:39.334Z,-4.20
2023-02-27T05:13:12.924Z,-4.40
2023-02-27T05:15:46.108Z,-4.40
2023-02-27T05:18:17.950Z,-4.50
2023-02-27T05:20:53.698Z,-4.50
2023-02-27T05:23:28.313Z,-4.60
2023-02-27T05:26:00.648Z,-4.40
2023-02-27T05:28:35.125Z,-4.60
2023-02-27T05:31:09.713Z,-4.50
2023-02-27T05:33:40.783Z,-4.60
2023-02-27T05:36:13.966Z,-4.40
2023-02-27T05:38:44.675Z,-4.50
2023-02-27T05:41:14.406Z,-4.50
2023-02-27T05:43:46.182Z,-4.30
2023-02-27T05:46:17.813Z,-4.40
2023-02-27T05:48:50.238Z,-4.20
2023-02-27T05:51:19.316Z,-4.20
2023-02-27T05:53:52.835Z,-4.20
2023-02-27T05:56:23.282Z,-4.10
2023-02-27T05:58:57.612Z,-4.10
2023-02-27T06:01:24.443Z,-4.00
2023-02-27T06:03:51.315Z,-4.00
2023-02-27T06:06:19.320Z,-3.90
2023-02-27T06:08:46.456Z,-3.90
2023-02-27T06:11:13.300Z,-4.00
2023-02-27T06:13:41.915Z,-3.90
2023-02-27T06:16:11.775Z,-3.90
2023-02-27T06:18:38.531Z,-4.10
2023-02-27T06:21:05.800Z,-4.00
2023-02-27T06:23:32.575Z,-4.00
2023-02-27T06:25:59.334Z,-3.90
2023-02-27T06:28:26.104Z,-4.00
2023-02-27T06:30:56.368Z,-3.90
2023-02-27T06:33:27.432Z,-3.90
2023-02-27T06:35:54.161Z,-3.80
2023-02-27T06:38:20.920Z,-3.70
2023-02-27T06:40:50.443Z,-3.70
2023-02-27T06:43:17.199Z,-3.70
2023-02-27T06:45:43.974Z,-3.70
2023-02-27T06:48:10.710Z,-3.60
2023-02-27T06:50:38.784Z,-3.60
2023-02-27T06:53:05.487Z,-3.60
2023-02-27T06:55:32.235Z,-3.50
2023-02-27T06:57:58.968Z,-3.40
2023-02-27T07:00:25.858Z,-3.40
2023-02-27T07:02:52.603Z,-3.50
2023-02-27T07:05:19.374Z,-3.30
2023-02-27T07:07:47.746Z,-3.30
2023-02-27T07:10:14.999Z,-3.50
2023-02-27T07:12:42.051Z,-3.10
2023-02-27T07:15:09.855Z,-3.10
2023-02-27T07:17:36.641Z,-3.20
2023-02-27T07:20:04.166Z,-2.90
2023-02-27T07:22:37.198Z,-2.90
2023-02-27T07:25:05.870Z,-2.90
2023-02-27T07:27:32.676Z,-2.90
2023-02-27T07:29:59.489Z,-2.80
2023-02-27T07:32:26.363Z,-2.60
2023-02-27T07:34:53.420Z,-2.70
2023-02-27T07:37:20.315Z,-2.50
2023-02-27T07:39:47.047Z,-2.50
2023-02-27T07:42:15.178Z,-2.40
2023-02-27T07:44:41.912Z,-2.20
2023-02-27T07:47:08.694Z,-2.30
2023-02-27T07:49:35.550Z,-2.20
2023-02-27T07:52:02.293Z,-2.20
2023-02-27T07:54:29.099Z,-2.00
2023-02-27T07:56:55.811Z,-1.80
2023-02-27T07:59:23.890Z,-1.60
2023-02-27T08:01:50.731Z,-1.50
2023-02-27T08:04:17.562Z,-1.30
2023-02-27T08:06:44.350Z,-1.20
2023-02-27T08:09:11.104Z,-1.10
2023-02-27T08:11:37.821Z,-1.10
2023-02-27T08:14:04.739Z,-0.90
2023-02-27T08:16:33.383Z,-0.90
2023-02-27T08:19:00.746Z,-0.90
2023-02-27T08:21:28.016Z,-0.80
2023-02-27T08:23:55.236Z,-0.50
2023-02-27T08:26:22.640Z,-0.50
2023-02-27T08:28:49.462Z,-0.50
2023-02-27T08:31:17.853Z,-0.40
2023-02-27T08:33:45.988Z,-0.20
2023-02-27T08:36:12.827Z,0.00
2023-02-27T08:38:39.612Z,0.00
2023-02-27T08:41:06.872Z,0.10
2023-02-27T08:43:33.670Z,0.00
2023-02-27T08:46:00.431Z,0.20
2023-02-27T08:48:27.472Z,0.30
2023-02-27T08:50:57.781Z,0.40
2023-02-27T08:53:25.485Z,0.60
2023-02-27T08:55:52.645Z,0.50
2023-02-27T08:58:19.772Z,0.70
2023-02-27T09:00:47.120Z,0.90
2023-02-27T09:03:13.925Z,1.00
2023-02-27T09:05:41.530Z,0.80
2023-02-27T09:08:09.748Z,1.00
2023-02-27T09:10:36.543Z,0.90
2023-02-27T09:13:03.333Z,1.10
2023-02-27T09:15:30.156Z,1.40
2023-02-27T09:17:56.911Z,1.40
2023-02-27T09:20:23.719Z,1.50
2023-02-27T09:22:50.597Z,1.30
2023-02-27T09:25:18.753Z,1.50
2023-02-27T09:27:45.488Z,1.60
2023-02-27T09:30:12.962Z,1.50
2023-02-27T09:32:39.761Z,1.70
2023-02-27T09:35:07.939Z,2.10
2023-02-27T09:37:34.725Z,1.90
2023-02-27T09:40:01.836Z,2.30
2023-02-27T09:42:37.324Z,2.10
2023-02-27T09:45:06.472Z,2.00
2023-02-27T09:47:37.923Z,2.30
2023-02-27T09:50:08.574Z,2.00
2023-02-27T09:52:37.346Z,2.20
2023-02-27T09:55:06.186Z,2.30
2023-02-27T09:57:44.316Z,2.60
2023-02-27T10:00:34.278Z,2.60
2023-02-27T10:03:15.956Z,2.50
2023-02-27T10:05:54.355Z,2.90
2023-02-27T10:08:26.951Z,3.10
2023-02-27T10:10:58.504Z,3.00
2023-02-27T10:13:50.528Z,3.10
2023-02-27T10:16:20.671Z,3.10
2023-02-27T10:18:54.337Z,3.10
2023-02-27T10:21:23.937Z,3.40
2023-02-27T10:23:55.007Z,3.30
2023-02-27T10:26:25.109Z,3.40
2023-02-27T10:28:53.200Z,3.40
2023-02-27T10:31:25.069Z,3.30
2023-02-27T10:33:52.667Z,3.50
2023-02-27T10:36:32.979Z,4.00
2023-02-27T10:39:05.022Z,3.80
2023-02-27T10:41:31.893Z,4.00
2023-02-27T10:44:00.814Z,3.90
2023-02-27T10:46:30.163Z,4.10
2023-02-27T10:48:59.575Z,4.10
2023-02-27T10:51:28.652Z,4.20
2023-02-27T10:54:15.287Z,4.60
2023-02-27T10:56:45.459Z,4.70
2023-02-27T10:59:21.486Z,5.00
2023-02-27T11:01:51.286Z,4.80
2023-02-27T11:04:25.396Z,4.50
2023-02-27T11:06:53.691Z,4.20
2023-02-27T11:09:22.115Z,4.10
2023-02-27T11:11:49.230Z,3.90
2023-02-27T11:14:28.960Z,4.30
2023-02-27T11:16:57.351Z,3.90
2023-02-27T11:19:33.124Z,4.00
2023-02-27T11:22:02.197Z,3.90
2023-02-27T11:24:28.773Z,3.90
2023-02-27T11:26:58.218Z,4.10
2023-02-27T11:29:25.349Z,3.80
2023-02-27T11:31:57.120Z,3.80
2023-02-27T11:34:30.123Z,4.30
2023-02-27T11:37:00.587Z,4.50
2023-02-27T11:39:34.098Z,4.40
2023-02-27T11:42:13.011Z,4.30
2023-02-27T11:44:51.485Z,4.60
2023-02-27T11:47:25.716Z,4.40
2023-02-27T11:50:21.380Z,4.20
2023-02-27T11:52:52.812Z,4.50
2023-02-27T11:55:22.630Z,4.80
2023-02-27T11:57:55.098Z,5.10
2023-02-27T12:00:26.942Z,4.90
2023-02-27T12:03:02.433Z,4.50
2023-02-27T12:05:32.643Z,3.90
2023-02-27T12:08:03.334Z,3.90
2023-02-27T12:10:35.354Z,4.30
2023-02-27T12:13:06.290Z,4.30
2023-02-27T12:15:42.740Z,4.20
2023-02-27T12:18:16.242Z,4.40
2023-02-27T12:20:51.095Z,4.70
2023-02-27T12:23:23.710Z,5.00
2023-02-27T12:25:52.633Z,4.60
2023-02-27T12:28:32.595Z,4.30
2023-02-27T12:31:27.307Z,4.30
2023-02-27T12:34:03.890Z,4.60
2023-02-27T12:36:31.138Z,4.30
2023-02-27T12:38:58.265Z,4.10
2023-02-27T12:41:37.470Z,4.10
2023-02-27T12:44:26.946Z,4.20
2023-02-27T12:47:00.338Z,4.60
2023-02-27T12:49:38.933Z,4.40
2023-02-27T12:52:17.085Z,4.30
2023-02-27T12:54:54.922Z,4.40
2023-02-27T12:57:32.216Z,4.10
2023-02-27T13:00:22.926Z,4.40
2023-02-27T13:03:02.927Z,4.10
2023-02-27T13:05:45.777Z,4.10
2023-02-27T13:08:54.727Z,4.60
2023-02-27T13:11:36.434Z,4.80
2023-02-27T13:14:09.246Z,4.90
2023-02-27T13:16:41.512Z,4.60
2023-02-27T13:19:15.308Z,4.40
2023-02-27T13:21:51.432Z,4.40
2023-02-27T13:24:26.410Z,4.30
2023-02-27T13:26:59.792Z,4.10
2023-02-27T13:29:34.943Z,4.10
2023-02-27T13:32:14.438Z,4.00
2023-02-27T13:34:46.131Z,3.90
2023-02-27T13:37:14.289Z,3.90
2023-02-27T13:39:56.071Z,3.80
2023-02-27T13:42:56.233Z,3.90
2023-02-27T13:45:48.728Z,3.90
2023-02-27T13:48:51.384Z,3.90
2023-02-27T13:51:41.400Z,4.00
2023-02-27T13:54:20.371Z,3.90
2023-02-27T13:56:48.258Z,3.90
2023-02-27T13:59:21.431Z,4.10
2023-02-27T14:01:53.263Z,4.20
2023-02-27T14:04:21.325Z,4.40
2023-02-27T14:06:48.715Z,4.40
2023-02-27T14:09:20.939Z,4.40
2023-02-27T14:11:54.230Z,4.30
2023-02-27T14:14:44.348Z,4.10
2023-02-27T14:17:34.931Z,4.20
2023-02-27T14:20:04.482Z,4.10
2023-02-27T14:22:51.857Z,3.90
2023-02-27T14:25:28.970Z,3.90
2023-02-27T14:28:00.638Z,4.20
2023-02-27T14:30:32.875Z,4.70
2023-02-27T14:33:08.180Z,4.30
2023-02-27T14:35:36.773Z,4.40
2023-02-27T14:38:09.610Z,4.20
2023-02-27T14:40:42.466Z,4.20
2023-02-27T14:43:20.345Z,4.20
2023-02-27T14:45:48.289Z,4.10
2023-02-27T14:48:25.514Z,4.20
2023-02-27T14:50:55.061Z,4.20
2023-02-27T14:53:24.121Z,4.20
2023-02-27T14:55:54.454Z,4.10
2023-02-27T14:58:22.556Z,4.10
2023-02-27T15:00:59.127Z,4.20
2023-02-27T15:03:32.122Z,4.00
2023-02-27T15:06:02.347Z,4.10
2023-02-27T15:08:33.917Z,4.30
2023-02-27T15:11:01.390Z,4.40
2023-02-27T15:13:30.280Z,4.40
2023-02-27T15:16:32.092Z,4.40
2023-02-27T15:19:01.143Z,4.10
2023-02-27T15:21:33.207Z,4.00
2023-02-27T15:24:01.872Z,3.90
2023-02-27T15:26:33.776Z,3.80
2023-02-27T15:29:00.986Z,3.80
2023-02-27T15:31:29.400Z,3.70
2023-02-27T15:33:57.637Z,3.80
2023-02-27T15:36:27.034Z,3.80
2023-02-27T15:39:07.364Z,3.80
2023-02-27T15:41:34.850Z,3.60
2023-02-27T15:44:02.465Z,3.50
2023-02-27T15:46:29.859Z,3.40
2023-02-27T15:48:56.895Z,3.30
2023-02-27T15:51:26.331Z,3.30
2023-02-27T15:53:58.034Z,3.30
2023-02-27T15:56:30.777Z,3.30
2023-02-27T15:59:01.102Z,3.50
2023-02-27T16:01:31.136Z,3.50
2023-02-27T16:04:00.316Z,3.40
2023-02-27T16:06:28.981Z,3.40
2023-02-27T16:08:58.263Z,3.30
2023-02-27T16:11:28.622Z,3.30
2023-02-27T16:13:56.054Z,3.30
2023-02-27T16:16:27.645Z,3.30
2023-02-27T16:18:56.185Z,3.20
2023-02-27T16:21:25.289Z,3.20
2023-02-27T16:23:52.374Z,3.10
2023-02-27T16:26:28.413Z,3.10
2023-02-27T16:28:56.616Z,3.10
2023-02-27T16:31:26.780Z,3.00
2023-02-27T16:33:55.068Z,3.00
2023-02-27T16:36:23.835Z,3.00
2023-02-27T16:38:52.009Z,2.90
2023-02-27T16:41:21.397Z,2.90
2023-02-27T16:43:50.348Z,2.90
2023-02-27T16:46:18.861Z,2.70
2023-02-27T16:48:45.967Z,2.70
2023-02-27T16:51:16.869Z,2.60
2023-02-27T16:53:44.259Z,2.50
2023-02-27T16:56:12.079Z,2.50
2023-02-27T16:58:40.145Z,2.40
2023-02-27T17:01:08.481Z,2.50
2023-02-27T17:03:35.712Z,2.40
2023-02-27T17:06:03.104Z,2.40
2023-02-27T17:08:30.506Z,2.30
2023-02-27T17:10:57.697Z,2.30
2023-02-27T17:13:24.814Z,2.10
2023-02-27T17:15:54.690Z,2.00
2023-02-27T17:18:22.842Z,2.00
2023-02-27T17:20:49.592Z,2.00
2023-02-27T17:23:16.579Z,1.80
2023-02-27T17:25:43.368Z,1.90
2023-02-27T17:28:10.154Z,1.80
2023-02-27T17:30:38.442Z,1.80
2023-02-27T17:33:05.273Z,1.70
2023-02-27T17:35:33.394Z,1.60
2023-02-27T17:38:00.155Z,1.50
2023-02-27T17:40:27.311Z,1.60
2023-02-27T17:42:54.096Z,1.50
2023-02-27T17:45:21.076Z,1.40
2023-02-27T17:47:48.320Z,1.30
2023-02-27T17:50:15.637Z,1.20
2023-02-27T17:52:43.973Z,1.20
2023-02-27T17:55:12.546Z,1.20
2023-02-27T17:57:39.741Z,1.10
2023-02-27T18:00:08.277Z,0.90
2023-02-27T18:02:35.335Z,0.90
2023-02-27T18:05:02.200Z,0.80
2023-02-27T18:07:29.002Z,0.70
2023-02-27T18:09:57.225Z,0.50
2023-02-27T18:12:23.978Z,0.30
2023-02-27T18:14:51.153Z,0.20
2023-02-27T18:17:17.910Z,0.20
2023-02-27T18:19:45.029Z,0.20
2023-02-27T18:22:12.487Z,0.10
2023-02-27T18:24:39.251Z,-0.20
2023-02-27T18:27:09.836Z,-0.30
2023-02-27T18:29:36.591Z,-0.40
2023-02-27T18:32:07.563Z,-0.50
2023-02-27T18:34:34.743Z,-0.40
2023-02-27T18:37:01.766Z,-0.50
2023-02-27T18:39:28.568Z,-0.60
2023-02-27T18:41:55.310Z,-0.60
2023-02-27T18:44:23.434Z,-0.60
2023-02-27T18:46:50.710Z,-0.70
2023-02-27T18:49:17.483Z,-0.70
2023-02-27T18:51:44.307Z,-0.70
2023-02-27T18:54:12.934Z,-0.70
2023-02-27T18:56:39.828Z,-0.70
2023-02-27T18:59:06.615Z,-0.60
2023-02-27T19:01:37.072Z,-0.60
2023-02-27T19:04:06.398Z,-0.60
2023-02-27T19:06:35.273Z,-0.70
2023-02-27T19:09:04.878Z,-0.70
2023-02-27T19:11:32.376Z,-0.80
2023-02-27T19:14:00.189Z,-0.70
2023-02-27T19:16:27.595Z,-0.70
2023-02-27T19:18:56.924Z,-0.70
2023-02-27T19:21:27.351Z,-0.70
2023-02-27T19:23:54.759Z,-0.60
2023-02-27T19:26:22.639Z,-0.70
2023-02-27T19:28:52.753Z,-0.70
2023-02-27T19:31:20.396Z,-0.80
2023-02-27T19:33:47.195Z,-0.80
2023-02-27T19:36:17.593Z,-0.90
2023-02-27T19:38:44.536Z,-0.90
2023-02-27T19:41:13.165Z,-0.90
2023-02-27T19:43:41.121Z,-0.80
2023-02-27T19:46:09.449Z,-1.00
2023-02-27T19:48:36.617Z,-0.80
2023-02-27T19:51:04.538Z,-0.90
2023-02-27T19:53:34.261Z,-0.70
2023-02-27T19:56:02.808Z,-0.70
2023-02-27T19:58:30.339Z,-0.70
2023-02-27T20:00:57.227Z,-0.60
2023-02-27T20:03:24.264Z,-0.60
2023-02-27T20:05:51.044Z,-0.60
2023-02-27T20:08:18.007Z,-0.60
2023-02-27T20:10:55.226Z,-0.40
2023-02-27T20:13:22.033Z,-0.20
2023-02-27T20:15:55.689Z,-0.30
2023-02-27T20:18:22.415Z,-0.30
2023-02-27T20:20:57.580Z,-0.40
2023-02-27T20:23:24.330Z,-0.50
2023-02-27T20:25:51.141Z,-0.50
2023-02-27T20:28:19.222Z,-0.50
2023-02-27T20:30:46.029Z,-0.50
2023-02-27T20:33:13.249Z,-0.60
2023-02-27T20:35:40.522Z,-0.60
2023-02-27T20:38:07.360Z,-0.70
2023-02-27T20:40:34.392Z,-0.80
2023-02-27T20:43:01.202Z,-0.80
2023-02-27T20:45:29.342Z,-0.70
2023-02-27T20:47:56.452Z,-1.00
2023-02-27T20:50:23.204Z,-1.10
2023-02-27T20:52:53.767Z,-1.00
2023-02-27T20:55:20.658Z,-1.10
2023-02-27T20:57:47.426Z,-1.30
2023-02-27T21:00:14.849Z,-1.30
2023-02-27T21:02:42.968Z,-1.30
2023-02-27T21:05:09.951Z,-1.40
2023-02-27T21:07:36.752Z,-1.30
2023-02-27T21:10:03.808Z,-1.40
2023-02-27T21:12:30.579Z,-1.50
2023-02-27T21:14:57.303Z,-1.50
2023-02-27T21:17:24.153Z,-1.40
2023-02-27T21:19:52.595Z,-1.50
2023-02-27T21:22:19.376Z,-1.60
2023-02-27T21:24:46.142Z,-1.60
2023-02-27T21:27:12.907Z,-1.80
2023-02-27T21:29:39.753Z,-1.70
2023-02-27T21:32:06.759Z,-1.40
2023-02-27T21:34:33.527Z,-1.50
2023-02-27T21:37:02.780Z,-1.70
2023-02-27T21:39:29.529Z,-1.50
2023-02-27T21:41:56.366Z,-1.70
2023-02-27T21:44:26.235Z,-1.80
2023-02-27T21:46:53.936Z,-1.80
2023-02-27T21:49:22.995Z,-1.90
2023-02-27T21:51:49.595Z,-1.80
2023-02-27T21:54:18.576Z,-1.90
2023-02-27T21:56:46.144Z,-2.00
2023-02-27T21:59:17.058Z,-2.00
2023-02-27T22:01:44.107Z,-1.90
2023-02-27T22:04:10.860Z,-1.90
2023-02-27T22:06:37.600Z,-2.00
2023-02-27T22:09:06.172Z,-2.00
2023-02-27T22:11:35.455Z,-2.10
2023-02-27T22:14:02.458Z,-2.00
2023-02-27T22:16:29.227Z,-1.90
2023-02-27T22:18:56.051Z,-2.10
2023-02-27T22:21:24.677Z,-1.80
2023-02-27T22:23:52.032Z,-1.80
2023-02-27T22:26:21.429Z,-1.80
2023-02-27T22:28:49.809Z,-1.70
2023-02-27T22:31:18.338Z,-1.80
2023-02-27T22:33:47.819Z,-1.70
2023-02-27T22:36:16.891Z,-1.80
2023-02-27T22:38:43.766Z,-2.00
2023-02-27T22:41:12.762Z,-2.10
2023-02-27T22:43:39.661Z,-2.20
2023-02-27T22:46:08.587Z,-2.20
2023-02-27T22:48:35.946Z,-2.10
2023-02-27T22:51:06.853Z,-2.00
2023-02-27T22:53:35.199Z,-2.20
2023-02-27T22:56:01.986Z,-2.10
2023-02-27T22:58:28.734Z,-2.10
2023-02-27T23:00:55.527Z,-2.10
2023-02-27T23:03:23.656Z,-2.20
2023-02-27T23:05:50.979Z,-2.20
2023-02-27T23:08:17.764Z,-2.30
2023-02-27T23:10:44.978Z,-2.30
2023-02-27T23:13:11.716Z,-2.30
2023-02-27T23:15:38.452Z,-2.20
2023-02-27T23:18:05.904Z,-2.20
2023-02-27T23:20:36.929Z,-2.10
2023-02-27T23:23:04.001Z,-2.10
2023-02-27T23:25:31.274Z,-1.90
2023-02-27T23:27:58.372Z,-2.00
2023-02-27T23:30:25.064Z,-2.00
2023-02-27T23:32:51.813Z,-2.10
2023-02-27T23:35:18.779Z,-2.30
2023-02-27T23:37:46.866Z,-2.30
2023-02-27T23:40:13.965Z,-2.30
2023-02-27T23:42:40.700Z,-2.40
2023-02-27T23:45:09.388Z,-2.40
2023-02-27T23:47:36.157Z,-2.30
2023-02-27T23:50:02.940Z,-2.30
2023-02-27T23:52:29.706Z,-2.40
2023-02-27T23:54:57.824Z,-2.30
2023-02-27T23:57:24.589Z,-2.40
2023-02-27T23:59:51.340Z,-2.30
